Time;durP1;ratioP1;P1;durP2;ratioP2;P2;SDS_P1;SDS_P2;PMS_P1;PMS_P2;Temp;Humidity;BMP_temperature;BMP_pressure;BME280_temperature;BME280_humidity;BME280_pressure;Samples;Min_cycle;Max_cycle;Signal;HPM_P1;HPM_P2
2023/03/24 00:00:48;;;;;;;3.42;0.80;;;;;;;;;;5021067;28;20172;-65
2023/03/24 00:03:16;;;;;;;1.92;0.60;;;;;;;;;;5020405;28;20045;-65
2023/03/24 00:05:49;;;;;;;5.15;0.70;;;;;;;;;;5019357;28;20405;-65
2023/03/24 00:08:19;;;;;;;2.10;0.98;;;;;;;;;;5019947;28;20044;-65
2023/03/24 00:10:48;;;;;;;2.20;0.90;;;;;;;;;;5021727;28;20053;-65
2023/03/24 00:13:16;;;;;;;0.40;0.40;;;;;;;;;;5019510;28;20045;-65
2023/03/24 00:15:47;;;;;;;0.90;0.68;;;;;;;;;;5019099;28;20049;-65
2023/03/24 00:18:17;;;;;;;1.65;0.95;;;;;;;;;;5021066;28;20073;-65
2023/03/24 00:20:45;;;;;;;0.50;0.50;;;;;;;;;;5022090;28;20038;-65
2023/03/24 00:23:14;;;;;;;1.25;0.63;;;;;;;;;;5021341;28;20129;-64
2023/03/24 00:25:44;;;;;;;0.77;0.60;;;;;;;;;;5020593;28;20045;-65
2023/03/24 00:28:12;;;;;;;4.38;1.10;;;;;;;;;;5022518;28;20402;-65
2023/03/24 00:30:42;;;;;;;2.30;0.95;;;;;;;;;;5021947;28;20062;-65
2023/03/24 00:33:10;;;;;;;1.55;0.65;;;;;;;;;;5020447;28;20359;-64
2023/03/24 00:35:39;;;;;;;0.70;0.52;;;;;;;;;;5020562;28;20053;-64
2023/03/24 00:38:07;;;;;;;4.18;2.20;;;;;;;;;;5021728;28;20107;-65
2023/03/24 00:40:35;;;;;;;1.15;0.45;;;;;;;;;;5021522;28;20072;-65
2023/03/24 00:43:05;;;;;;;1.20;0.80;;;;;;;;;;5022203;28;20133;-65
2023/03/24 00:45:34;;;;;;;0.63;0.63;;;;;;;;;;5020271;28;20491;-65
2023/03/24 00:48:03;;;;;;;0.45;0.40;;;;;;;;;;5016712;28;20056;-64
2023/03/24 00:50:32;;;;;;;0.75;0.50;;;;;;;;;;5022551;28;20469;-65
2023/03/24 00:53:00;;;;;;;3.25;0.52;;;;;;;;;;5022803;28;20474;-65
2023/03/24 00:55:30;;;;;;;1.58;0.70;;;;;;;;;;5020652;28;20536;-65
2023/03/24 00:58:00;;;;;;;0.68;0.60;;;;;;;;;;5020819;28;20053;-64
2023/03/24 01:00:29;;;;;;;1.60;0.70;;;;;;;;;;5019572;28;20148;-65
2023/03/24 01:02:58;;;;;;;2.67;1.20;;;;;;;;;;5018974;28;20049;-65
2023/03/24 01:05:29;;;;;;;1.13;0.63;;;;;;;;;;5020772;28;20057;-65
2023/03/24 01:08:02;;;;;;;0.57;0.57;;;;;;;;;;5019632;28;20140;-64
2023/03/24 01:10:31;;;;;;;2.10;1.15;;;;;;;;;;5017373;28;20049;-65
2023/03/24 01:13:01;;;;;;;1.08;0.80;;;;;;;;;;5021536;28;20046;-65
2023/03/24 01:15:33;;;;;;;1.52;0.80;;;;;;;;;;5023496;28;20152;-65
2023/03/24 01:18:01;;;;;;;4.75;0.80;;;;;;;;;;5019354;28;20498;-64
2023/03/24 01:20:31;;;;;;;0.85;0.75;;;;;;;;;;5019929;28;20049;-65
2023/03/24 01:23:00;;;;;;;2.35;0.90;;;;;;;;;;5018435;28;20402;-65
2023/03/24 01:25:29;;;;;;;2.13;0.98;;;;;;;;;;5017841;28;20049;-64
2023/03/24 01:27:58;;;;;;;1.50;0.82;;;;;;;;;;5019500;28;20091;-65
2023/03/24 01:30:28;;;;;;;4.75;0.98;;;;;;;;;;5022543;28;20221;-65
2023/03/24 01:32:57;;;;;;;1.85;0.47;;;;;;;;;;5014370;28;20403;-65
2023/03/24 01:35:27;;;;;;;1.45;0.75;;;;;;;;;;5019634;28;20103;-66
2023/03/24 01:37:56;;;;;;;1.02;0.90;;;;;;;;;;5012538;28;20049;-65
2023/03/24 01:40:26;;;;;;;2.60;1.50;;;;;;;;;;5017834;28;20068;-65
2023/03/24 01:42:55;;;;;;;2.15;1.38;;;;;;;;;;5015311;28;20049;-65
2023/03/24 01:45:49;;;;;;;0.73;0.70;;;;;;;;;;5019576;28;20137;-65
2023/03/24 01:48:22;;;;;;;8.65;0.80;;;;;;;;;;5017207;28;20557;-64
2023/03/24 01:50:53;;;;;;;3.00;1.10;;;;;;;;;;5018244;28;20060;-65
2023/03/24 01:53:22;;;;;;;1.50;0.80;;;;;;;;;;5020273;28;20045;-64
2023/03/24 01:55:51;;;;;;;2.92;1.15;;;;;;;;;;5018004;28;21439;-65
2023/03/24 01:58:19;;;;;;;2.60;0.55;;;;;;;;;;5019505;28;20137;-65
2023/03/24 02:00:48;;;;;;;3.78;0.90;;;;;;;;;;5018245;28;20501;-65
2023/03/24 02:03:19;;;;;;;1.58;1.33;;;;;;;;;;5034772;22;20073;31
2023/03/24 02:05:51;;;;;;;3.80;1.75;;;;;;;;;;5024118;28;20053;-65
2023/03/24 02:08:21;;;;;;;0.60;0.50;;;;;;;;;;5020735;28;20050;-62
2023/03/24 02:10:50;;;;;;;1.50;0.73;;;;;;;;;;5022103;28;20045;-65
2023/03/24 02:13:18;;;;;;;2.13;1.08;;;;;;;;;;5024841;28;20060;-66
2023/03/24 02:15:52;;;;;;;1.55;0.63;;;;;;;;;;5024137;28;20045;-66
2023/03/24 02:18:26;;;;;;;2.28;0.82;;;;;;;;;;5022955;28;20048;-66
2023/03/24 02:21:21;;;;;;;1.23;0.88;;;;;;;;;;5022390;28;20097;-66
2023/03/24 02:24:10;;;;;;;3.08;1.02;;;;;;;;;;5025525;28;20524;-66
2023/03/24 02:26:56;;;;;;;2.35;0.80;;;;;;;;;;5023109;28;20045;-67
2023/03/24 02:29:55;;;;;;;0.70;0.57;;;;;;;;;;5021465;28;20128;-66
2023/03/24 02:32:30;;;;;;;8.60;0.80;;;;;;;;;;5022924;28;20049;-67
2023/03/24 02:35:09;;;;;;;5.50;0.98;;;;;;;;;;5016338;28;20053;-66
2023/03/24 02:37:47;;;;;;;1.02;0.60;;;;;;;;;;5021177;28;20054;-65
2023/03/24 02:40:29;;;;;;;3.55;1.35;;;;;;;;;;5024054;28;20403;-66
2023/03/24 02:43:02;;;;;;;1.38;0.85;;;;;;;;;;5023078;28;20155;-66
2023/03/24 02:45:35;;;;;;;1.33;0.98;;;;;;;;;;5022989;28;20458;-66
2023/03/24 02:48:16;;;;;;;1.13;0.68;;;;;;;;;;5023166;28;20057;-65
2023/03/24 02:50:48;;;;;;;1.35;0.70;;;;;;;;;;5024172;28;20083;-66
2023/03/24 02:53:18;;;;;;;3.35;1.10;;;;;;;;;;5023598;28;20045;-65
2023/03/24 02:55:52;;;;;;;1.83;0.68;;;;;;;;;;5023113;28;20064;-66
2023/03/24 02:58:24;;;;;;;0.95;0.55;;;;;;;;;;5022425;28;20490;-66
2023/03/24 03:00:58;;;;;;;0.50;0.50;;;;;;;;;;5023741;28;20041;-65
2023/03/24 03:03:29;;;;;;;0.63;0.60;;;;;;;;;;5024114;28;20405;-66
2023/03/24 03:06:00;;;;;;;1.00;0.60;;;;;;;;;;5013974;28;20153;-65
2023/03/24 03:08:31;;;;;;;0.73;0.60;;;;;;;;;;5015786;28;20483;-65
2023/03/24 03:11:02;;;;;;;2.13;0.85;;;;;;;;;;5016437;28;20103;-65
2023/03/24 03:13:32;;;;;;;1.42;0.68;;;;;;;;;;5015486;28;20050;-65
2023/03/24 03:16:04;;;;;;;5.28;0.60;;;;;;;;;;5015128;28;20045;-66
2023/03/24 03:18:34;;;;;;;1.67;0.65;;;;;;;;;;5014926;28;20177;-66
2023/03/24 03:21:05;;;;;;;3.70;0.85;;;;;;;;;;5012557;28;20136;-66
2023/03/24 03:23:36;;;;;;;0.65;0.52;;;;;;;;;;5015205;28;20042;-65
2023/03/24 03:26:06;;;;;;;0.95;0.68;;;;;;;;;;5015516;28;20060;-66
2023/03/24 03:28:37;;;;;;;0.95;0.73;;;;;;;;;;5012751;28;20388;-64
2023/03/24 03:31:07;;;;;;;1.25;0.45;;;;;;;;;;5015056;28;20045;-67
2023/03/24 03:33:38;;;;;;;1.23;0.70;;;;;;;;;;5015172;28;20500;-62
2023/03/24 03:36:09;;;;;;;3.42;0.75;;;;;;;;;;5011798;28;20660;-66
2023/03/24 03:38:43;;;;;;;1.33;0.63;;;;;;;;;;5015332;28;20046;-65
2023/03/24 03:41:13;;;;;;;1.70;0.73;;;;;;;;;;5010708;28;20046;-65
2023/03/24 03:43:42;;;;;;;0.30;0.30;;;;;;;;;;5014184;28;20060;-67
2023/03/24 03:46:10;;;;;;;0.93;0.80;;;;;;;;;;5015409;28;20038;-65
2023/03/24 03:48:39;;;;;;;1.83;0.68;;;;;;;;;;5009282;28;20457;-61
2023/03/24 03:51:08;;;;;;;0.43;0.43;;;;;;;;;;5008443;28;20046;-66
2023/03/24 03:53:44;;;;;;;5.45;1.23;;;;;;;;;;5014621;28;20705;-65
2023/03/24 03:56:17;;;;;;;3.80;2.08;;;;;;;;;;5014077;28;20514;-66
2023/03/24 03:58:46;;;;;;;1.13;0.82;;;;;;;;;;5016022;28;20117;-67
2023/03/24 04:01:17;;;;;;;2.67;0.88;;;;;;;;;;5008898;28;20045;-65
2023/03/24 04:03:57;;;;;;;0.88;0.57;;;;;;;;;;5012173;28;20062;-66
2023/03/24 04:06:30;;;;;;;1.73;0.88;;;;;;;;;;5003112;28;20459;-65
2023/03/24 04:09:03;;;;;;;0.77;0.65;;;;;;;;;;5007440;28;20046;-62
2023/03/24 04:11:40;;;;;;;0.68;0.68;;;;;;;;;;5007306;28;20050;-65
2023/03/24 04:14:18;;;;;;;1.17;0.65;;;;;;;;;;5006786;28;20045;-65
2023/03/24 04:16:49;;;;;;;3.25;0.70;;;;;;;;;;5004413;28;20048;-66
2023/03/24 04:19:24;;;;;;;1.83;0.77;;;;;;;;;;5005572;28;20046;-66
2023/03/24 04:22:03;;;;;;;1.15;0.70;;;;;;;;;;5007903;28;20073;-66
2023/03/24 04:24:35;;;;;;;1.13;0.68;;;;;;;;;;5005765;28;20121;-66
2023/03/24 04:27:08;;;;;;;2.90;0.77;;;;;;;;;;5004617;28;20060;-65
2023/03/24 04:29:41;;;;;;;1.95;1.00;;;;;;;;;;5007060;28;20054;-64
2023/03/24 04:32:18;;;;;;;2.45;1.02;;;;;;;;;;5004431;28;20144;-65
2023/03/24 04:34:49;;;;;;;1.00;0.50;;;;;;;;;;5004935;28;20145;-66
2023/03/24 04:37:20;;;;;;;0.98;0.60;;;;;;;;;;5005069;28;20038;-66
2023/03/24 04:39:49;;;;;;;1.48;0.75;;;;;;;;;;5004390;28;20070;-65
2023/03/24 04:42:20;;;;;;;1.33;0.63;;;;;;;;;;5002943;28;20052;-65
2023/03/24 04:44:50;;;;;;;1.13;0.60;;;;;;;;;;5006236;28;20053;-64
2023/03/24 04:47:20;;;;;;;1.65;0.82;;;;;;;;;;5003291;28;20046;-65
2023/03/24 04:49:48;;;;;;;1.63;0.50;;;;;;;;;;5003512;28;20045;-65
2023/03/24 04:52:17;;;;;;;2.42;0.77;;;;;;;;;;5006159;28;20140;-66
2023/03/24 04:54:45;;;;;;;1.85;0.77;;;;;;;;;;5004804;28;20651;-65
2023/03/24 04:57:14;;;;;;;2.88;0.95;;;;;;;;;;5004849;28;20042;-66
2023/03/24 04:59:45;;;;;;;0.82;0.75;;;;;;;;;;5005832;28;20053;-66
2023/03/24 05:02:13;;;;;;;0.98;0.50;;;;;;;;;;5006253;28;20069;-66
2023/03/24 05:04:41;;;;;;;0.40;0.32;;;;;;;;;;5005902;28;20053;-66
2023/03/24 05:07:10;;;;;;;0.82;0.82;;;;;;;;;;5004045;28;20053;-65
2023/03/24 05:09:38;;;;;;;1.65;1.00;;;;;;;;;;5004490;28;20049;-65
2023/03/24 05:12:07;;;;;;;0.50;0.50;;;;;;;;;;5005447;28;20042;-66
2023/03/24 05:14:35;;;;;;;2.08;0.90;;;;;;;;;;5004205;28;20510;-66
2023/03/24 05:17:05;;;;;;;1.02;0.57;;;;;;;;;;5002509;28;20430;-67
2023/03/24 05:19:33;;;;;;;1.75;0.57;;;;;;;;;;5003804;28;20125;-66
2023/03/24 05:22:02;;;;;;;2.00;0.98;;;;;;;;;;5003375;28;20042;-66
2023/03/24 05:24:30;;;;;;;7.50;0.70;;;;;;;;;;5005252;28;20710;-66
2023/03/24 05:26:58;;;;;;;2.30;0.50;;;;;;;;;;5003905;28;20052;-65
2023/03/24 05:29:27;;;;;;;0.75;0.75;;;;;;;;;;5005886;28;20052;-66
2023/03/24 05:31:55;;;;;;;0.73;0.60;;;;;;;;;;5004756;28;20046;-66
2023/03/24 05:34:25;;;;;;;1.52;0.70;;;;;;;;;;5004630;28;20472;-62
2023/03/24 05:36:53;;;;;;;1.95;0.63;;;;;;;;;;5003778;28;20045;-66
2023/03/24 05:39:21;;;;;;;1.17;0.68;;;;;;;;;;5004202;28;20046;-66
2023/03/24 05:41:50;;;;;;;1.10;0.52;;;;;;;;;;5004832;28;20054;-65
2023/03/24 05:44:18;;;;;;;1.23;0.70;;;;;;;;;;5003774;28;20042;-65
2023/03/24 05:46:46;;;;;;;1.33;0.90;;;;;;;;;;5002114;28;20144;-64
2023/03/24 05:49:15;;;;;;;1.02;0.68;;;;;;;;;;5004078;28;20045;-64
2023/03/24 05:51:45;;;;;;;2.70;1.00;;;;;;;;;;5003101;28;20045;-63
2023/03/24 05:54:13;;;;;;;1.85;0.98;;;;;;;;;;5004071;28;20052;-63
2023/03/24 05:56:41;;;;;;;1.15;0.70;;;;;;;;;;4999071;28;20057;-64
2023/03/24 05:59:11;;;;;;;1.13;0.63;;;;;;;;;;5004358;28;20073;-64
2023/03/24 06:01:44;;;;;;;1.33;0.73;;;;;;;;;;5005143;28;20084;-63
2023/03/24 06:04:13;;;;;;;5.63;0.90;;;;;;;;;;5003156;28;20568;-65
2023/03/24 06:06:44;;;;;;;2.42;0.93;;;;;;;;;;5004497;28;20046;-65
2023/03/24 06:09:15;;;;;;;2.38;1.75;;;;;;;;;;5004675;28;20046;-61
2023/03/24 06:11:44;;;;;;;0.63;0.63;;;;;;;;;;5001485;28;20073;-63
2023/03/24 06:14:12;;;;;;;0.95;0.50;;;;;;;;;;5001884;28;20092;-64
2023/03/24 06:16:41;;;;;;;5.22;1.00;;;;;;;;;;4999512;28;20050;-64
2023/03/24 06:19:09;;;;;;;2.38;0.98;;;;;;;;;;5001836;28;20049;-62
2023/03/24 06:21:38;;;;;;;2.28;0.88;;;;;;;;;;5002972;28;20041;-65
2023/03/24 06:24:06;;;;;;;1.30;0.70;;;;;;;;;;5004013;28;20053;-64
2023/03/24 06:26:36;;;;;;;0.50;0.50;;;;;;;;;;5003218;28;20049;-61
2023/03/24 06:29:05;;;;;;;3.88;0.85;;;;;;;;;;5005079;28;20470;-64
2023/03/24 06:31:34;;;;;;;1.75;0.63;;;;;;;;;;5005186;28;20053;-64
2023/03/24 06:34:03;;;;;;;1.73;0.60;;;;;;;;;;5004033;28;20050;-64
2023/03/24 06:36:33;;;;;;;0.38;0.38;;;;;;;;;;5003721;28;20958;-62
2023/03/24 06:39:04;;;;;;;1.38;0.88;;;;;;;;;;5003494;28;20079;-65
2023/03/24 06:41:33;;;;;;;5.13;1.10;;;;;;;;;;5003183;28;20140;-64
2023/03/24 06:44:03;;;;;;;3.30;0.60;;;;;;;;;;5003689;28;20133;-63
2023/03/24 06:46:31;;;;;;;4.45;0.85;;;;;;;;;;5001695;28;20133;-64
2023/03/24 06:48:59;;;;;;;4.28;0.95;;;;;;;;;;5004421;28;20521;-63
2023/03/24 06:51:28;;;;;;;2.22;1.13;;;;;;;;;;5003659;28;20079;-61
2023/03/24 06:53:56;;;;;;;1.85;0.82;;;;;;;;;;5004622;28;20064;-65
2023/03/24 06:56:25;;;;;;;1.52;0.70;;;;;;;;;;5001967;28;20141;-64
2023/03/24 06:58:54;;;;;;;1.55;0.93;;;;;;;;;;5004431;28;20049;-64
2023/03/24 07:01:24;;;;;;;1.00;0.80;;;;;;;;;;5004523;28;20072;-62
2023/03/24 07:03:52;;;;;;;0.52;0.45;;;;;;;;;;5007777;28;20065;-64
2023/03/24 07:06:21;;;;;;;0.75;0.68;;;;;;;;;;5002678;28;20054;-61
2023/03/24 07:08:50;;;;;;;2.38;1.58;;;;;;;;;;5009560;28;20730;-63
2023/03/24 07:11:18;;;;;;;0.55;0.55;;;;;;;;;;5012589;28;20042;-66
2023/03/24 07:13:46;;;;;;;0.65;0.63;;;;;;;;;;5009743;28;20077;-65
2023/03/24 07:16:15;;;;;;;2.20;0.70;;;;;;;;;;5009737;28;20054;-64
2023/03/24 07:18:44;;;;;;;1.33;0.77;;;;;;;;;;5017139;28;20057;-64
2023/03/24 07:21:13;;;;;;;1.15;0.90;;;;;;;;;;5008610;28;20483;-63
2023/03/24 07:23:41;;;;;;;0.65;0.47;;;;;;;;;;5010545;28;20052;-64
2023/03/24 07:26:09;;;;;;;2.72;1.00;;;;;;;;;;5011641;28;20054;-63
2023/03/24 07:28:38;;;;;;;2.00;1.10;;;;;;;;;;5017227;28;20055;-64
2023/03/24 07:31:09;;;;;;;2.42;0.73;;;;;;;;;;5009374;28;20410;-65
2023/03/24 07:33:38;;;;;;;2.42;0.90;;;;;;;;;;5011015;28;20537;-63
2023/03/24 07:36:08;;;;;;;1.65;1.33;;;;;;;;;;5007510;28;20064;-64
2023/03/24 07:38:36;;;;;;;2.58;1.15;;;;;;;;;;5011010;28;20050;-65
2023/03/24 07:41:05;;;;;;;3.20;1.02;;;;;;;;;;5008936;28;20424;-65
2023/03/24 07:43:34;;;;;;;0.75;0.70;;;;;;;;;;5012652;28;20128;-63
2023/03/24 07:46:02;;;;;;;2.92;1.02;;;;;;;;;;5010384;28;20073;-63
2023/03/24 07:48:30;;;;;;;2.30;1.30;;;;;;;;;;5006128;28;20034;-67
2023/03/24 07:50:59;;;;;;;2.35;1.00;;;;;;;;;;5013932;28;20927;-67
2023/03/24 07:53:29;;;;;;;1.95;0.95;;;;;;;;;;5015516;28;20053;-67
2023/03/24 07:55:57;;;;;;;2.47;1.23;;;;;;;;;;5013445;28;20054;-68
2023/03/24 07:58:26;;;;;;;2.83;1.27;;;;;;;;;;5015784;28;20379;-67
2023/03/24 08:00:55;;;;;;;1.80;0.90;;;;;;;;;;5013472;28;20173;-64
2023/03/24 08:03:24;;;;;;;2.85;1.00;;;;;;;;;;5018550;28;20042;-66
2023/03/24 08:05:53;;;;;;;1.50;0.95;;;;;;;;;;5010254;28;20119;-61
2023/03/24 08:08:22;;;;;;;1.70;0.93;;;;;;;;;;5015706;28;20053;-67
2023/03/24 08:10:52;;;;;;;1.95;1.08;;;;;;;;;;5014637;28;20059;-66
2023/03/24 08:13:21;;;;;;;2.38;1.20;;;;;;;;;;5016261;28;20128;-66
2023/03/24 08:15:50;;;;;;;12.45;1.83;;;;;;;;;;5007637;28;20051;-62
2023/03/24 08:18:19;;;;;;;3.33;1.13;;;;;;;;;;5014773;28;20144;-66
2023/03/24 08:20:48;;;;;;;5.63;1.13;;;;;;;;;;5004647;28;20044;-68
2023/03/24 08:23:17;;;;;;;3.92;1.50;;;;;;;;;;5011084;28;20050;-67
2023/03/24 08:25:46;;;;;;;2.70;1.17;;;;;;;;;;5014375;28;20045;-64
2023/03/24 08:28:16;;;;;;;5.35;1.20;;;;;;;;;;5006691;28;20041;-65
2023/03/24 08:30:44;;;;;;;1.13;0.70;;;;;;;;;;5014463;28;20062;-68
2023/03/24 08:33:14;;;;;;;4.45;1.30;;;;;;;;;;5016781;28;20092;-68
2023/03/24 08:35:43;;;;;;;3.80;1.70;;;;;;;;;;5008182;28;20057;-67
2023/03/24 08:38:13;;;;;;;3.65;1.88;;;;;;;;;;5011826;28;20124;-67
2023/03/24 08:40:44;;;;;;;2.92;1.27;;;;;;;;;;5016129;28;20060;-67
2023/03/24 08:43:14;;;;;;;2.67;1.38;;;;;;;;;;5010125;28;20136;-67
2023/03/24 08:45:44;;;;;;;1.63;0.70;;;;;;;;;;5014005;28;20149;-67
2023/03/24 08:48:13;;;;;;;4.78;0.90;;;;;;;;;;5011753;28;20057;-67
2023/03/24 08:50:42;;;;;;;2.67;1.08;;;;;;;;;;5010611;28;20483;-68
2023/03/24 08:53:11;;;;;;;1.42;0.70;;;;;;;;;;5017529;28;20053;-67
2023/03/24 08:55:40;;;;;;;2.30;0.73;;;;;;;;;;5014800;28;20429;-66
2023/03/24 08:58:09;;;;;;;1.95;1.17;;;;;;;;;;5009419;28;20053;-66
2023/03/24 09:00:38;;;;;;;1.70;0.88;;;;;;;;;;5015072;28;20050;-67
2023/03/24 09:03:07;;;;;;;3.83;1.17;;;;;;;;;;5014825;28;20069;-66
2023/03/24 09:05:36;;;;;;;1.42;0.82;;;;;;;;;;5009505;28;21687;-66
2023/03/24 09:08:12;;;;;;;2.28;0.90;;;;;;;;;;5001565;28;20054;-67
2023/03/24 09:10:41;;;;;;;1.23;0.80;;;;;;;;;;5015937;28;20077;-66
2023/03/24 09:13:10;;;;;;;1.05;0.95;;;;;;;;;;5012829;28;20060;-69
2023/03/24 09:15:38;;;;;;;1.52;1.15;;;;;;;;;;5012575;28;20046;-69
2023/03/24 09:18:08;;;;;;;2.00;0.82;;;;;;;;;;5010749;28;20046;-71
2023/03/24 09:20:37;;;;;;;5.97;1.30;;;;;;;;;;5011331;28;20045;-70
2023/03/24 09:23:05;;;;;;;2.70;0.98;;;;;;;;;;5016669;28;20440;-70
2023/03/24 09:25:34;;;;;;;1.73;1.00;;;;;;;;;;5013475;28;20042;-67
2023/03/24 09:28:02;;;;;;;1.95;0.82;;;;;;;;;;5010179;28;20130;-60
2023/03/24 09:30:31;;;;;;;1.08;0.80;;;;;;;;;;5016380;28;20077;-67
2023/03/24 09:33:02;;;;;;;1.00;0.65;;;;;;;;;;5013158;28;20038;-65
2023/03/24 09:35:32;;;;;;;1.58;0.65;;;;;;;;;;5016631;28;20045;-66
2023/03/24 09:38:00;;;;;;;2.03;1.02;;;;;;;;;;5011043;28;20046;-65
2023/03/24 09:40:30;;;;;;;1.85;1.13;;;;;;;;;;5011537;28;20442;-67
2023/03/24 09:43:00;;;;;;;2.00;0.93;;;;;;;;;;5013665;28;20482;-69
2023/03/24 09:45:30;;;;;;;1.25;0.52;;;;;;;;;;4995373;28;20136;-67
2023/03/24 09:48:01;;;;;;;0.80;0.60;;;;;;;;;;5009534;28;20125;-61
2023/03/24 09:50:30;;;;;;;0.65;0.50;;;;;;;;;;5017037;28;20054;-69
2023/03/24 09:53:03;;;;;;;0.90;0.75;;;;;;;;;;5009377;28;20483;-68
2023/03/24 09:55:31;;;;;;;1.42;0.65;;;;;;;;;;5010715;28;20049;-68
2023/03/24 09:58:01;;;;;;;4.85;0.65;;;;;;;;;;5010916;28;20049;-66
2023/03/24 10:00:31;;;;;;;1.63;0.82;;;;;;;;;;5010372;28;20748;-67
2023/03/24 10:03:02;;;;;;;1.98;0.77;;;;;;;;;;5010171;28;20463;-68
2023/03/24 10:05:35;;;;;;;0.60;0.50;;;;;;;;;;5012817;28;20714;-68
2023/03/24 10:08:10;;;;;;;1.38;0.55;;;;;;;;;;5006143;28;20049;-69
2023/03/24 10:10:41;;;;;;;1.30;0.90;;;;;;;;;;5012871;28;20049;-68
2023/03/24 10:13:16;;;;;;;3.15;1.27;;;;;;;;;;5015294;28;20046;-64
2023/03/24 10:15:48;;;;;;;0.70;0.70;;;;;;;;;;5008273;28;20050;-61
2023/03/24 10:18:26;;;;;;;1.80;0.70;;;;;;;;;;5005998;28;20050;-68
2023/03/24 10:20:55;;;;;;;1.33;0.73;;;;;;;;;;5015082;28;20049;-69
2023/03/24 10:23:30;;;;;;;2.40;0.73;;;;;;;;;;5009154;28;20487;-72
2023/03/24 10:26:04;;;;;;;1.60;0.73;;;;;;;;;;5011463;28;20045;-70
2023/03/24 10:28:37;;;;;;;0.60;0.60;;;;;;;;;;5011556;28;20124;-70
2023/03/24 10:31:11;;;;;;;0.63;0.55;;;;;;;;;;5008301;28;20041;-70
2023/03/24 10:33:41;;;;;;;2.70;0.90;;;;;;;;;;5011706;28;20051;-66
2023/03/24 10:36:11;;;;;;;1.05;0.82;;;;;;;;;;5006836;28;20652;-66
2023/03/24 10:38:41;;;;;;;2.15;1.27;;;;;;;;;;5011656;28;20060;-70
2023/03/24 10:41:14;;;;;;;2.03;1.13;;;;;;;;;;5014767;28;20551;-68
2023/03/24 10:43:43;;;;;;;1.85;0.50;;;;;;;;;;5004685;28;20137;-67
2023/03/24 10:46:14;;;;;;;2.85;0.82;;;;;;;;;;5009574;28;20088;-64
2023/03/24 10:48:44;;;;;;;2.22;0.95;;;;;;;;;;5003407;28;20053;-69
2023/03/24 10:51:15;;;;;;;7.47;1.75;;;;;;;;;;5011948;28;20140;-72
2023/03/24 10:53:47;;;;;;;4.63;0.55;;;;;;;;;;5009797;28;20503;-62
2023/03/24 10:56:20;;;;;;;1.23;0.98;;;;;;;;;;5010753;28;20053;-69
2023/03/24 10:58:48;;;;;;;1.52;0.77;;;;;;;;;;5004192;28;20049;-70
2023/03/24 11:01:29;;;;;;;2.40;0.52;;;;;;;;;;5012027;28;20109;-70
2023/03/24 11:03:59;;;;;;;1.50;0.70;;;;;;;;;;5010097;28;20062;-73
2023/03/24 11:06:28;;;;;;;2.20;0.60;;;;;;;;;;5003357;28;20758;-73
2023/03/24 11:09:11;;;;;;;1.00;0.65;;;;;;;;;;5002408;28;20502;-72
2023/03/24 11:11:40;;;;;;;1.83;0.65;;;;;;;;;;5003215;28;20766;-71
2023/03/24 11:14:18;;;;;;;0.95;0.70;;;;;;;;;;5002504;28;20042;-71
2023/03/24 11:16:47;;;;;;;1.27;0.50;;;;;;;;;;5002322;28;20049;-70
2023/03/24 11:19:19;;;;;;;1.38;0.90;;;;;;;;;;5005221;28;20046;-70
2023/03/24 11:21:51;;;;;;;0.35;0.30;;;;;;;;;;5001644;28;20053;-64
2023/03/24 11:24:21;;;;;;;4.22;1.08;;;;;;;;;;5002901;28;20514;-68
2023/03/24 11:26:55;;;;;;;0.77;0.50;;;;;;;;;;5004133;28;20065;-64
2023/03/24 11:29:26;;;;;;;1.23;0.40;;;;;;;;;;5008690;28;20061;-69
2023/03/24 11:31:57;;;;;;;0.30;0.20;;;;;;;;;;5008553;28;20076;-68
2023/03/24 11:34:26;;;;;;;1.38;0.95;;;;;;;;;;5004433;28;20049;-69
2023/03/24 11:36:57;;;;;;;1.83;0.60;;;;;;;;;;5005258;28;20128;-68
2023/03/24 11:39:27;;;;;;;1.48;0.75;;;;;;;;;;5005541;28;20135;-68
2023/03/24 11:42:07;;;;;;;0.30;0.30;;;;;;;;;;4998917;28;20172;-68
2023/03/24 11:44:49;;;;;;;2.17;0.60;;;;;;;;;;5005421;28;20050;-67
2023/03/24 11:47:22;;;;;;;0.65;0.50;;;;;;;;;;5006629;28;20058;-69
2023/03/24 11:49:53;;;;;;;0.25;0.22;;;;;;;;;;5005873;28;20053;-70
2023/03/24 11:52:24;;;;;;;0.77;0.30;;;;;;;;;;5005804;28;20046;-71
2023/03/24 11:54:54;;;;;;;0.80;0.40;;;;;;;;;;4998752;28;20411;-70
2023/03/24 11:57:28;;;;;;;1.25;0.47;;;;;;;;;;5007594;28;20137;-72
2023/03/24 11:59:58;;;;;;;0.30;0.30;;;;;;;;;;5007578;28;20042;-70
2023/03/24 12:02:35;;;;;;;0.45;0.43;;;;;;;;;;5007632;28;20514;-73
2023/03/24 12:05:11;;;;;;;0.50;0.50;;;;;;;;;;5005796;28;20124;-69
2023/03/24 12:07:49;;;;;;;0.70;0.52;;;;;;;;;;5006091;28;20162;-73
2023/03/24 12:10:25;;;;;;;3.90;0.55;;;;;;;;;;5007615;28;20734;-71
2023/03/24 12:13:00;;;;;;;0.98;0.60;;;;;;;;;;5006961;28;20574;-69
2023/03/24 12:15:40;;;;;;;1.55;0.60;;;;;;;;;;5006056;28;20128;-71
2023/03/24 12:18:15;;;;;;;2.00;0.75;;;;;;;;;;5005470;28;20050;-69
2023/03/24 12:20:44;;;;;;;;;;;;;;;;;;5007895;28;20144;-68
2023/03/24 12:23:14;;;;;;;0.43;0.40;;;;;;;;;;5005839;28;19976;-69
2023/03/24 12:25:49;;;;;;;1.17;0.70;;;;;;;;;;5005607;28;20069;-68
2023/03/24 12:28:27;;;;;;;1.30;0.32;;;;;;;;;;5005296;28;20794;-69
2023/03/24 12:30:59;;;;;;;1.70;0.25;;;;;;;;;;5005999;28;20558;-68
2023/03/24 12:33:36;;;;;;;1.67;0.70;;;;;;;;;;5006816;28;20499;-69
2023/03/24 12:36:12;;;;;;;1.05;0.63;;;;;;;;;;5004838;28;20057;-68
2023/03/24 12:38:47;;;;;;;0.55;0.30;;;;;;;;;;5007473;28;20061;-69
2023/03/24 12:41:25;;;;;;;1.52;0.57;;;;;;;;;;5006194;28;20100;-65
2023/03/24 12:44:02;;;;;;;1.02;0.77;;;;;;;;;;5006976;28;20050;-67
2023/03/24 12:46:35;;;;;;;1.05;0.38;;;;;;;;;;5005765;28;20129;-68
2023/03/24 12:49:42;;;;;;;0.40;0.35;;;;;;;;;;5006204;28;20054;-61
2023/03/24 12:52:21;;;;;;;1.35;0.38;;;;;;;;;;5000573;28;20491;-69
2023/03/24 12:54:53;;;;;;;0.45;0.38;;;;;;;;;;5006369;28;20080;-65
2023/03/24 12:57:25;;;;;;;0.75;0.65;;;;;;;;;;5005203;28;20068;-69
2023/03/24 12:59:56;;;;;;;1.48;0.40;;;;;;;;;;5004729;28;20045;-66
2023/03/24 13:02:26;;;;;;;1.55;0.30;;;;;;;;;;5004625;28;21360;-69
2023/03/24 13:05:02;;;;;;;0.40;0.20;;;;;;;;;;5001373;28;20142;-67
2023/03/24 13:07:33;;;;;;;1.15;0.32;;;;;;;;;;5002169;28;20552;-68
2023/03/24 13:10:05;;;;;;;0.63;0.38;;;;;;;;;;4991732;28;20491;-65
2023/03/24 13:12:37;;;;;;;2.35;0.40;;;;;;;;;;4999634;28;20450;-65
2023/03/24 13:15:13;;;;;;;1.10;0.35;;;;;;;;;;4999417;28;20073;-69
2023/03/24 13:17:46;;;;;;;4.57;0.28;;;;;;;;;;5000463;28;20518;-67
2023/03/24 13:20:17;;;;;;;1.52;0.50;;;;;;;;;;5001159;28;20045;-61
2023/03/24 13:22:46;;;;;;;1.20;0.65;;;;;;;;;;5001640;28;20137;-66
2023/03/24 13:25:25;;;;;;;0.70;0.50;;;;;;;;;;4999899;28;20115;-69
2023/03/24 13:27:57;;;;;;;0.22;0.22;;;;;;;;;;5000463;28;20049;-72
2023/03/24 13:30:31;;;;;;;0.22;0.20;;;;;;;;;;5000901;28;20390;-67
2023/03/24 13:33:01;;;;;;;0.28;0.28;;;;;;;;;;5000870;28;20050;-67
2023/03/24 13:35:38;;;;;;;0.10;0.10;;;;;;;;;;4997681;28;20529;-67
2023/03/24 13:38:11;;;;;;;0.28;0.22;;;;;;;;;;5001260;28;20038;-67
2023/03/24 13:40:40;;;;;;;0.68;0.40;;;;;;;;;;4998614;28;20049;-65
2023/03/24 13:43:13;;;;;;;0.38;0.30;;;;;;;;;;5003618;28;20073;-67
2023/03/24 13:45:43;;;;;;;1.27;0.38;;;;;;;;;;4998410;28;20140;-61
2023/03/24 13:48:19;;;;;;;0.80;0.38;;;;;;;;;;5000252;28;20783;-64
2023/03/24 13:50:52;;;;;;;1.20;0.30;;;;;;;;;;5000188;28;20491;-61
2023/03/24 13:53:25;;;;;;;0.52;0.32;;;;;;;;;;5001625;28;20136;-63
2023/03/24 13:55:56;;;;;;;1.30;0.55;;;;;;;;;;4999333;28;20087;-65
2023/03/24 13:58:27;;;;;;;0.20;0.20;;;;;;;;;;4998717;28;20060;-66
2023/03/24 14:01:13;;;;;;;0.50;0.32;;;;;;;;;;5000929;28;20053;-65
2023/03/24 14:03:43;;;;;;;0.20;0.20;;;;;;;;;;5001572;28;20060;-64
2023/03/24 14:06:12;;;;;;;0.30;0.30;;;;;;;;;;5012141;28;20104;-67
2023/03/24 14:08:42;;;;;;;2.63;0.20;;;;;;;;;;5003861;28;20073;-61
2023/03/24 14:11:29;;;;;;;0.63;0.28;;;;;;;;;;5003946;28;20053;-67
2023/03/24 14:14:06;;;;;;;0.10;0.10;;;;;;;;;;5010893;28;20133;-67
2023/03/24 14:16:42;;;;;;;0.22;0.22;;;;;;;;;;5005802;28;20050;-65
2023/03/24 14:19:22;;;;;;;0.15;0.15;;;;;;;;;;5009730;28;20085;-65
2023/03/24 14:22:05;;;;;;;0.85;0.38;;;;;;;;;;5011638;28;20112;-67
2023/03/24 14:24:33;;;;;;;0.20;0.20;;;;;;;;;;5007943;28;20049;-68
2023/03/24 14:27:01;;;;;;;0.55;0.55;;;;;;;;;;5008103;28;20099;-68
2023/03/24 14:29:42;;;;;;;0.20;0.20;;;;;;;;;;5005921;28;20125;-68
2023/03/24 14:32:16;;;;;;;0.75;0.20;;;;;;;;;;5011388;28;20132;-67
2023/03/24 14:34:51;;;;;;;0.63;0.40;;;;;;;;;;5003182;28;20194;-67
2023/03/24 14:37:20;;;;;;;2.17;0.43;;;;;;;;;;5011295;28;20085;-66
2023/03/24 14:39:49;;;;;;;0.05;0.05;;;;;;;;;;5010880;28;20045;-68
2023/03/24 14:42:28;;;;;;;0.65;0.55;;;;;;;;;;5007324;28;20064;-67
2023/03/24 14:44:58;;;;;;;0.25;0.20;;;;;;;;;;5012604;28;20148;-66
2023/03/24 14:47:28;;;;;;;0.10;0.10;;;;;;;;;;5006594;28;20062;-65
2023/03/24 14:49:57;;;;;;;0.35;0.32;;;;;;;;;;5002644;28;20049;-67
2023/03/24 14:52:29;;;;;;;0.93;0.30;;;;;;;;;;5011200;28;20426;-65
2023/03/24 14:54:59;;;;;;;0.30;0.28;;;;;;;;;;5013482;28;20754;-63
2023/03/24 14:57:28;;;;;;;0.20;0.20;;;;;;;;;;5006297;28;20410;-67
2023/03/24 15:00:05;;;;;;;0.57;0.30;;;;;;;;;;5010394;28;20136;-68
2023/03/24 15:02:36;;;;;;;1.25;0.25;;;;;;;;;;5016618;28;20107;-68
2023/03/24 15:05:20;;;;;;;0.20;0.20;;;;;;;;;;5006121;28;20045;-65
2023/03/24 15:08:11;;;;;;;0.25;0.17;;;;;;;;;;5005732;28;20542;-67